Time;durP1;ratioP1;P1;durP2;ratioP2;P2;SDS_P1;SDS_P2;PMS_P1;PMS_P2;Temp;Humidity;BMP_temperature;BMP_pressure;BME280_temperature;BME280_humidity;BME280_pressure;Samples;Min_cycle;Max_cycle;Signal;HPM_P1;HPM_P2
2022/11/16 00:01:09;;;;;;;111.27;57.70;;;;;;;5.65;98.41;94650.09;5093849;28;20479;-75
2022/11/16 00:03:36;;;;;;;107.10;57.47;;;;;;;5.66;98.71;94641.34;5094459;28;20441;-75
2022/11/16 00:06:05;;;;;;;103.23;54.83;;;;;;;5.67;99.01;94658.63;5094060;28;20927;-75
2022/11/16 00:08:35;;;;;;;123.60;57.70;;;;;;;5.66;100.00;94641.34;5093934;28;20606;-75
2022/11/16 00:11:07;;;;;;;625.30;127.07;;;;;;;5.65;100.00;94640.50;5058204;28;20440;-74
2022/11/16 00:13:34;;;;;;;130.53;65.03;;;;;;;5.49;100.00;94640.75;5093683;28;20437;-74
2022/11/16 00:16:02;;;;;;;135.77;69.03;;;;;;;5.35;100.00;94653.03;5093598;28;20452;-74
2022/11/16 00:18:29;;;;;;;135.50;66.13;;;;;;;5.42;100.00;94643.88;5093746;28;20455;-75
2022/11/16 00:20:56;;;;;;;137.60;67.37;;;;;;;5.31;100.00;94644.59;5093567;28;20449;-74
2022/11/16 00:23:23;;;;;;;150.80;68.63;;;;;;;5.38;100.00;94645.84;5093520;28;20444;-75
2022/11/16 00:25:52;;;;;;;145.33;62.73;;;;;;;5.22;100.00;94650.44;5093730;28;20882;-74
2022/11/16 00:28:18;;;;;;;146.67;58.87;;;;;;;5.23;100.00;94647.75;5093894;28;20479;-75
2022/11/16 00:30:45;;;;;;;128.13;56.90;;;;;;;5.27;100.00;94630.16;5093338;28;20509;-74
2022/11/16 00:33:15;;;;;;;171.60;55.10;;;;;;;5.17;100.00;94618.69;5093646;28;20455;-74
2022/11/16 00:35:42;;;;;;;106.67;48.40;;;;;;;5.18;100.00;94633.34;5093400;28;20499;-75
2022/11/16 00:38:09;;;;;;;120.70;48.70;;;;;;;5.18;100.00;94635.97;5093302;28;20474;-74
2022/11/16 00:40:35;;;;;;;89.90;45.10;;;;;;;5.25;100.00;94637.22;5093306;28;20440;-75
2022/11/16 00:43:04;;;;;;;97.87;47.60;;;;;;;5.23;100.00;94634.72;5093455;28;20966;-75
2022/11/16 00:45:30;;;;;;;91.03;47.50;;;;;;;5.29;100.00;94629.09;5092940;28;20443;-75
2022/11/16 00:47:57;;;;;;;101.93;45.47;;;;;;;5.33;100.00;94621.91;5093129;28;20484;-75
2022/11/16 00:50:24;;;;;;;99.47;45.07;;;;;;;5.28;100.00;94616.22;5093338;28;20448;-75
2022/11/16 00:52:51;;;;;;;88.77;44.43;;;;;;;5.32;100.00;94622.84;5093182;28;20442;-75
2022/11/16 00:55:17;;;;;;;89.93;42.00;;;;;;;5.34;100.00;94605.38;5092947;28;20455;-75
2022/11/16 00:57:44;;;;;;;98.90;48.60;;;;;;;5.34;100.00;94610.56;5057391;28;20467;-75
2022/11/16 01:00:13;;;;;;;86.03;45.30;;;;;;;5.41;100.00;94614.41;5073467;28;20546;-75
2022/11/16 01:02:40;;;;;;;95.27;49.10;;;;;;;5.47;100.00;94611.38;5093167;28;20445;-75
2022/11/16 01:05:09;;;;;;;109.00;49.47;;;;;;;5.50;100.00;94603.38;5073646;28;20973;-75
2022/11/16 01:07:36;;;;;;;122.47;53.30;;;;;;;5.52;100.00;94593.69;5057657;28;20565;-75
2022/11/16 01:10:03;;;;;;;119.07;52.63;;;;;;;5.56;100.00;94595.16;5092905;28;20467;-75
2022/11/16 01:12:29;;;;;;;124.33;57.60;;;;;;;5.56;100.00;94591.72;5073405;28;20498;-75
2022/11/16 01:14:56;;;;;;;122.60;57.60;;;;;;;5.49;99.25;94591.31;5093028;28;20919;-75
2022/11/16 01:17:24;;;;;;;114.67;55.30;;;;;;;5.46;99.95;94585.47;5092756;28;20195;-76
2022/11/16 01:19:51;;;;;;;118.23;56.27;;;;;;;5.33;99.59;94577.69;5092717;28;20459;-75
2022/11/16 01:22:18;;;;;;;113.13;55.07;;;;;;;5.18;100.00;94582.16;5057013;28;20444;-75
2022/11/16 01:24:46;;;;;;;101.43;47.97;;;;;;;5.15;100.00;94573.75;5092354;28;20449;-75
2022/11/16 01:27:13;;;;;;;116.30;49.90;;;;;;;4.85;100.00;94579.25;5091611;28;20917;-75
2022/11/16 01:29:39;;;;;;;124.70;49.80;;;;;;;4.85;100.00;94574.91;5092531;28;20447;-75
2022/11/16 01:32:09;;;;;;;120.33;51.20;;;;;;;4.90;100.00;94577.19;5092475;28;20529;-75
2022/11/16 01:34:37;;;;;;;144.60;51.77;;;;;;;4.82;100.00;94579.47;5092618;28;20447;-75
2022/11/16 01:37:04;;;;;;;172.03;52.77;;;;;;;4.82;100.00;94584.69;5092219;28;20447;-75
2022/11/16 01:39:31;;;;;;;97.80;48.27;;;;;;;4.87;100.00;94574.78;5057085;28;20478;-76
2022/11/16 01:41:57;;;;;;;106.73;48.90;;;;;;;4.94;100.00;94571.69;5056673;28;20448;-75
2022/11/16 01:44:56;;;;;;;103.27;48.73;;;;;;;5.05;100.00;94573.56;5073178;28;20436;-75
2022/11/16 01:47:23;;;;;;;195.83;50.60;;;;;;;4.95;100.00;94578.56;5092219;28;20533;-75
2022/11/16 01:49:59;;;;;;;159.53;53.07;;;;;;;4.95;100.00;94575.97;5091923;28;20448;-76
2022/11/16 01:52:30;;;;;;;149.50;53.73;;;;;;;4.97;100.00;94571.50;5056534;28;20459;-76
2022/11/16 01:54:58;;;;;;;206.03;57.33;;;;;;;5.00;100.00;94574.81;5092053;28;20458;-76
2022/11/16 01:57:28;;;;;;;149.20;53.90;;;;;;;5.08;100.00;94569.91;5092219;28;20962;-75
2022/11/16 01:59:58;;;;;;;150.17;48.83;;;;;;;5.14;100.00;94566.88;5091927;28;20524;-75
2022/11/16 02:02:25;;;;;;;146.37;47.40;;;;;;;5.17;100.00;94575.31;5091777;28;20435;-76
2022/11/16 02:04:55;;;;;;;107.20;47.80;;;;;;;5.26;100.00;94571.25;5091938;28;20451;-75
2022/11/16 02:09:52;;;;;;;130.43;48.27;;;;;;;5.33;100.00;94572.50;5091902;28;20946;-75
2022/11/16 02:10:29;;;;;;;131.53;46.50;;;;;;;5.44;100.00;94569.97;5091948;28;20436;-75
2022/11/16 02:13:07;;;;;;;107.33;43.87;;;;;;;5.47;100.00;94551.53;5091698;28;20436;-75
2022/11/16 02:15:40;;;;;;;88.00;44.20;;;;;;;5.45;100.00;94561.22;5092027;28;20519;-76
2022/11/16 02:18:20;;;;;;;127.60;45.47;;;;;;;5.38;100.00;94548.75;5091684;28;20544;-74
2022/11/16 02:21:17;;;;;;;91.50;40.40;;;;;;;5.39;100.00;94548.63;5091744;28;20451;-75
2022/11/16 02:24:05;;;;;;;79.30;43.27;;;;;;;5.43;100.00;94552.69;5029284;28;21004;-76
2022/11/16 02:27:03;;;;;;;89.53;44.43;;;;;;;5.39;100.00;94540.00;5029306;28;20447;-74
2022/11/16 02:29:34;;;;;;;89.30;44.50;;;;;;;5.39;100.00;94545.22;4950775;29;20490;-76
2022/11/16 02:32:05;;;;;;;146.10;44.27;;;;;;;5.45;100.00;94547.38;4951205;29;20455;-75
2022/11/16 02:34:37;;;;;;;116.67;48.07;;;;;;;5.41;100.00;94554.56;4951241;29;20454;-76
2022/11/16 02:37:07;;;;;;;96.80;43.23;;;;;;;5.49;100.00;94548.81;4951202;29;20503;-75
2022/11/16 02:39:36;;;;;;;95.23;45.57;;;;;;;5.57;100.00;94539.56;4954769;28;20455;-76
2022/11/16 02:42:08;;;;;;;95.97;46.87;;;;;;;5.67;100.00;94544.09;4954679;29;20942;-75
2022/11/16 02:44:40;;;;;;;141.07;46.47;;;;;;;5.67;100.00;94534.50;4954854;29;20444;-75
2022/11/16 02:47:12;;;;;;;145.00;45.57;;;;;;;5.71;100.00;94540.31;4954832;29;20451;-76
2022/11/16 02:49:45;;;;;;;124.30;44.57;;;;;;;5.73;100.00;94533.25;4954619;29;20595;-76
2022/11/16 02:52:15;;;;;;;189.63;46.30;;;;;;;5.68;100.00;94535.34;4954823;29;21047;-75
2022/11/16 02:54:42;;;;;;;138.80;43.17;;;;;;;5.59;100.00;94531.63;4954620;29;20556;-76
2022/11/16 02:57:39;;;;;;;132.33;47.63;;;;;;;5.60;100.00;94538.50;4954873;29;20439;-75
2022/11/16 03:00:10;;;;;;;229.07;46.93;;;;;;;5.60;100.00;94539.34;4952125;28;20488;-76
2022/11/16 03:02:46;;;;;;;152.77;50.20;;;;;;;5.55;100.00;94536.22;5013054;28;20530;-76
2022/11/16 03:05:18;;;;;;;94.63;41.73;;;;;;;5.63;100.00;94532.25;5012746;28;20442;-75
2022/11/16 03:07:50;;;;;;;109.73;44.33;;;;;;;5.67;100.00;94529.31;5048046;28;20450;-75
2022/11/16 03:13:02;;;;;;;116.37;41.90;;;;;;;5.82;100.00;94524.78;5051448;28;20525;-77
2022/11/16 03:15:31;;;;;;;114.47;44.20;;;;;;;5.82;100.00;94516.97;5052178;28;20896;-75
2022/11/16 03:18:00;;;;;;;110.10;49.93;;;;;;;5.79;100.00;94518.03;5002840;28;20449;-75
2022/11/16 03:20:31;;;;;;;137.13;48.07;;;;;;;5.83;100.00;94503.03;5052112;28;20442;-75
2022/11/16 03:23:01;;;;;;;111.23;46.37;;;;;;;5.81;100.00;94510.94;5002633;28;20471;-76
2022/11/16 03:25:31;;;;;;;92.37;45.07;;;;;;;5.81;100.00;94512.72;5052191;28;20446;-74
2022/11/16 03:28:04;;;;;;;204.67;44.00;;;;;;;5.76;100.00;94509.59;5051949;28;20493;-77
2022/11/16 03:30:36;;;;;;;168.90;44.13;;;;;;;5.71;100.00;94514.28;5051815;28;20452;-75
2022/11/16 03:33:10;;;;;;;127.53;40.20;;;;;;;5.58;100.00;94512.59;5051918;28;20442;-77
2022/11/16 03:35:42;;;;;;;247.17;43.53;;;;;;;5.56;100.00;94509.25;5051924;28;20847;-76
2022/11/16 03:38:10;;;;;;;74.37;40.77;;;;;;;5.59;100.00;94509.03;5086102;28;21013;-75
2022/11/16 03:40:39;;;;;;;128.33;43.60;;;;;;;5.42;100.00;94506.78;5094741;28;20809;-75
2022/11/16 03:43:08;;;;;;;147.87;39.90;;;;;;;5.44;100.00;94510.13;5094653;28;20445;-76
2022/11/16 03:45:36;;;;;;;124.03;39.67;;;;;;;5.36;100.00;94514.22;5094428;28;20445;-77
2022/11/16 03:48:03;;;;;;;104.37;39.23;;;;;;;5.35;100.00;94515.97;5075454;28;20425;-77
2022/11/16 03:50:30;;;;;;;116.50;40.10;;;;;;;5.21;100.00;94514.34;5058276;28;20494;-75
2022/11/16 03:52:57;;;;;;;143.63;41.00;;;;;;;5.27;100.00;94510.50;5094150;28;20436;-75
2022/11/16 03:55:24;;;;;;;108.90;37.23;;;;;;;5.06;100.00;94517.19;5094448;28;20452;-76
2022/11/16 03:57:50;;;;;;;81.30;36.00;;;;;;;5.03;100.00;94499.19;5094353;28;20444;-76
2022/11/16 04:00:17;;;;;;;364.10;53.77;;;;;;;5.09;100.00;94507.41;5094273;28;20480;-76
2022/11/16 04:02:46;;;;;;;100.33;38.57;;;;;;;5.15;100.00;94512.16;5094436;28;20509;-76
2022/11/16 04:24:37;;;;;;;70.13;36.13;;;;;;;5.52;100.00;94474.00;5093810;28;20773;-75
2022/11/16 04:29:51;;;;;;;100.17;40.33;;;;;;;5.65;100.00;94479.13;5031009;28;20556;-75
2022/11/16 04:37:52;;;;;;;133.20;35.30;;;;;;;5.46;100.00;94478.78;4988855;28;20845;-75
2022/11/16 04:40:20;;;;;;;110.97;37.37;;;;;;;5.44;100.00;94470.25;5030888;28;20595;-75
2022/11/16 04:42:50;;;;;;;137.30;39.43;;;;;;;5.37;100.00;94467.28;5030622;28;20451;-75
2022/11/16 04:48:02;;;;;;;86.53;32.27;;;;;;;5.24;100.00;94469.94;5030540;28;20534;-75
2022/11/16 04:50:30;;;;;;;68.27;34.07;;;;;;;5.30;100.00;94466.06;5030702;28;20458;-75
2022/11/16 04:52:56;;;;;;;85.80;35.63;;;;;;;5.35;100.00;94469.16;5030468;28;20458;-74
2022/11/16 04:55:23;;;;;;;67.20;36.20;;;;;;;5.42;100.00;94467.78;5030556;28;20439;-75
2022/11/16 04:57:50;;;;;;;71.10;37.10;;;;;;;5.46;100.00;94465.78;5030533;28;20450;-75
2022/11/16 05:00:17;;;;;;;81.93;36.33;;;;;;;5.52;100.00;94458.38;5029915;28;20486;-75
2022/11/16 05:02:44;;;;;;;96.30;40.60;;;;;;;5.60;100.00;94466.47;5029601;28;20512;-75
2022/11/16 05:05:12;;;;;;;102.43;43.43;;;;;;;5.64;100.00;94456.66;5030336;28;20446;-74
2022/11/16 05:07:40;;;;;;;101.43;40.37;;;;;;;5.50;100.00;94454.22;5077004;28;20451;-74
2022/11/16 05:10:08;;;;;;;73.87;38.17;;;;;;;5.44;100.00;94452.88;5073712;28;20558;-74
2022/11/16 05:12:35;;;;;;;75.20;36.93;;;;;;;5.44;100.00;94460.69;5092705;28;20448;-75
2022/11/16 05:15:02;;;;;;;76.50;36.07;;;;;;;5.38;100.00;94461.13;5092980;28;20441;-75
2022/11/16 05:17:29;;;;;;;100.87;36.53;;;;;;;5.33;100.00;94471.03;5092524;28;20450;-75
2022/11/16 05:22:41;;;;;;;62.33;34.27;;;;;;;5.39;100.00;94462.78;5092492;28;20436;-75
2022/11/16 05:25:09;;;;;;;56.87;32.73;;;;;;;5.45;100.00;94451.09;5076536;28;20441;-76
2022/11/16 05:27:36;;;;;;;64.80;34.40;;;;;;;5.48;100.00;94456.91;5091881;28;20437;-75
2022/11/16 05:30:04;;;;;;;64.17;34.07;;;;;;;5.50;100.00;94457.66;5092772;28;20978;-74
2022/11/16 05:32:31;;;;;;;63.30;35.80;;;;;;;5.48;100.00;94459.50;5093023;28;20927;-74
2022/11/16 05:34:57;;;;;;;71.73;35.70;;;;;;;5.38;100.00;94455.91;5092653;28;20783;-75
2022/11/16 05:37:25;;;;;;;87.43;46.63;;;;;;;5.40;100.00;94453.22;5093161;28;20947;-76
2022/11/16 05:39:55;;;;;;;73.63;35.80;;;;;;;5.44;100.00;94450.28;5092955;28;20455;-75
2022/11/16 05:42:22;;;;;;;62.40;32.70;;;;;;;5.41;100.00;94455.69;5092686;28;20479;-75
2022/11/16 05:44:49;;;;;;;62.77;36.70;;;;;;;5.44;100.00;94457.25;5090505;28;21170;-75
2022/11/16 05:47:16;;;;;;;65.30;36.70;;;;;;;5.39;100.00;94449.78;5092665;28;20798;-75
2022/11/16 05:49:43;;;;;;;75.67;35.77;;;;;;;5.44;100.00;94458.06;5092578;28;20479;-75
2022/11/16 05:52:09;;;;;;;69.47;35.73;;;;;;;5.35;100.00;94452.72;5093196;28;20455;-75
2022/11/16 05:54:36;;;;;;;75.83;38.90;;;;;;;5.38;100.00;94455.09;5083129;28;20457;-76
2022/11/16 05:57:04;;;;;;;77.20;38.10;;;;;;;5.27;100.00;94459.31;5072601;28;20452;-76
2022/11/16 05:59:31;;;;;;;72.10;37.00;;;;;;;5.34;100.00;94470.09;5072087;28;20446;-76
2022/11/16 06:01:58;;;;;;;77.77;39.73;;;;;;;5.10;100.00;94466.63;5072106;28;20448;-75
2022/11/16 06:04:25;;;;;;;77.53;39.60;;;;;;;5.18;100.00;94475.53;5072720;28;20455;-75
2022/11/16 06:06:54;;;;;;;72.07;38.57;;;;;;;5.34;100.00;94462.28;5072361;28;20495;-75
2022/11/16 06:09:21;;;;;;;69.50;37.20;;;;;;;5.37;100.00;94464.66;5072100;28;20476;-75
2022/11/16 06:11:48;;;;;;;71.87;38.77;;;;;;;5.34;100.00;94456.25;5080379;28;20919;-75
2022/11/16 06:14:16;;;;;;;77.53;43.05;;;;;;;5.31;100.00;94459.91;5051823;28;20462;-75
2022/11/16 06:16:43;;;;;;;68.37;37.40;;;;;;;5.17;100.00;94475.66;5071606;28;20662;-75
2022/11/16 06:19:10;;;;;;;73.87;40.30;;;;;;;5.37;100.00;94469.88;5071251;28;20445;-74
2022/11/16 06:21:36;;;;;;;71.63;37.43;;;;;;;5.42;100.00;94464.34;5071787;28;20787;-76
2022/11/16 06:24:07;;;;;;;69.43;36.10;;;;;;;5.41;100.00;94466.09;5071983;28;20441;-75
2022/11/16 06:26:34;;;;;;;69.53;37.67;;;;;;;5.53;100.00;94472.22;5071631;28;20544;-75
2022/11/16 06:29:01;;;;;;;58.23;35.90;;;;;;;5.64;100.00;94467.06;5088148;28;20484;-75
2022/11/16 06:31:30;;;;;;;63.20;33.90;;;;;;;5.76;100.00;94470.53;5092129;28;20528;-74
2022/11/16 06:33:56;;;;;;;67.43;35.53;;;;;;;5.80;100.00;94465.03;5091684;28;20449;-75
2022/11/16 06:36:23;;;;;;;58.23;33.13;;;;;;;5.80;100.00;94466.78;5091920;28;20650;-75
2022/11/16 06:38:50;;;;;;;62.13;34.30;;;;;;;5.80;100.00;94467.63;5091578;28;20451;-75
2022/11/16 06:41:17;;;;;;;57.13;32.47;;;;;;;5.87;100.00;94471.44;5091705;28;20909;-76
2022/11/16 06:43:43;;;;;;;67.47;33.37;;;;;;;5.82;100.00;94464.91;5091524;28;20440;-75
2022/11/16 06:46:10;;;;;;;65.77;37.50;;;;;;;5.83;100.00;94466.56;5091447;28;21225;-76
2022/11/16 06:48:38;;;;;;;76.30;41.47;;;;;;;5.81;100.00;94463.25;5091169;28;20452;-76
2022/11/16 06:51:05;;;;;;;61.93;36.83;;;;;;;5.84;100.00;94461.25;5091845;28;20463;-75
2022/11/16 06:53:32;;;;;;;82.33;42.57;;;;;;;5.87;100.00;94447.16;5091501;28;20439;-76
2022/11/16 06:56:01;;;;;;;78.40;41.93;;;;;;;5.82;100.00;94454.50;5091889;28;20428;-76
2022/11/16 06:58:30;;;;;;;72.37;40.97;;;;;;;5.87;100.00;94457.59;5091554;28;20526;-77
2022/11/16 07:00:56;;;;;;;85.03;41.63;;;;;;;5.90;100.00;94462.59;5091445;28;21001;-76
2022/11/16 07:03:23;;;;;;;78.43;43.40;;;;;;;5.98;100.00;94462.84;5091412;28;20461;-75
2022/11/16 07:05:51;;;;;;;73.53;39.90;;;;;;;5.93;100.00;94449.34;5091700;28;20775;-77
2022/11/16 07:08:18;;;;;;;70.83;37.20;;;;;;;5.96;100.00;94453.50;5091597;28;20465;-76
2022/11/16 07:10:45;;;;;;;67.23;35.07;;;;;;;5.91;100.00;94443.44;5091202;28;20814;-77
2022/11/16 07:13:12;;;;;;;62.77;38.30;;;;;;;5.98;100.00;94449.84;5089162;28;20462;-77
2022/11/16 07:15:38;;;;;;;63.23;33.17;;;;;;;6.05;100.00;94445.81;5052566;28;20441;-77
2022/11/16 07:18:06;;;;;;;57.37;33.70;;;;;;;6.21;100.00;94450.75;5071835;28;20450;-76
2022/11/16 07:20:33;;;;;;;74.87;36.13;;;;;;;6.48;100.00;94455.66;5072588;28;20868;-77
2022/11/16 07:23:02;;;;;;;61.43;37.80;;;;;;;6.52;100.00;94444.88;5072131;28;20943;-76
2022/11/16 07:25:29;;;;;;;64.23;34.30;;;;;;;6.67;100.00;94449.88;5086494;28;20449;-77
2022/11/16 07:27:58;;;;;;;59.00;35.77;;;;;;;6.80;100.00;94445.38;5068607;28;20454;-77
2022/11/16 07:30:25;;;;;;;54.03;33.03;;;;;;;6.77;100.00;94443.81;5084148;28;20546;-76
2022/11/16 07:32:57;;;;;;;53.80;31.23;;;;;;;6.81;100.00;94450.47;5086099;28;20514;-76
2022/11/16 07:35:24;;;;;;;61.73;35.03;;;;;;;6.84;100.00;94447.63;5090564;28;20470;-76
2022/11/16 07:37:50;;;;;;;52.90;33.37;;;;;;;6.92;100.00;94448.78;5090544;28;20447;-76
2022/11/16 07:40:19;;;;;;;54.40;33.27;;;;;;;6.96;100.00;94442.41;5084123;28;20445;-76
2022/11/16 07:42:45;;;;;;;56.13;33.00;;;;;;;6.91;100.00;94437.53;5094434;28;20473;-76
2022/11/16 07:45:12;;;;;;;56.77;35.30;;;;;;;7.02;100.00;94439.31;5091531;28;20467;-76
2022/11/16 07:47:39;;;;;;;55.43;32.33;;;;;;;7.09;100.00;94437.88;5094205;28;20848;-75
2022/11/16 07:50:07;;;;;;;54.63;32.50;;;;;;;7.16;100.00;94433.84;5094145;28;20490;-76
2022/11/16 07:52:33;;;;;;;52.70;33.60;;;;;;;7.22;100.00;94432.53;5094265;28;20443;-77
2022/11/16 07:55:01;;;;;;;60.30;35.20;;;;;;;7.30;100.00;94430.97;5094135;28;20442;-75
2022/11/16 07:57:29;;;;;;;56.30;37.67;;;;;;;7.35;100.00;94428.00;5094513;28;20854;-76
2022/11/16 07:59:56;;;;;;;64.90;38.37;;;;;;;7.26;100.00;94429.56;5086587;28;20490;-75
2022/11/16 08:02:23;;;;;;;63.20;36.27;;;;;;;7.13;100.00;94423.66;5069332;28;20452;-76
2022/11/16 08:04:50;;;;;;;78.20;39.13;;;;;;;7.35;100.00;94428.00;5037896;28;20964;-75
2022/11/16 08:07:17;;;;;;;79.33;43.77;;;;;;;7.22;100.00;94422.91;5073362;28;20444;-76
2022/11/16 08:09:44;;;;;;;90.10;46.63;;;;;;;7.23;100.00;94422.00;5073819;28;20882;-75
2022/11/16 08:12:11;;;;;;;75.67;42.27;;;;;;;7.43;100.00;94428.22;5073733;28;20448;-75
2022/11/16 08:14:39;;;;;;;76.03;40.17;;;;;;;7.52;100.00;94418.81;5073734;28;20451;-76
2022/11/16 08:17:07;;;;;;;80.20;39.27;;;;;;;7.62;100.00;94422.34;5073974;28;20451;-75
2022/11/16 08:19:38;;;;;;;73.93;37.80;;;;;;;7.61;100.00;94415.47;5087885;28;20500;-76
2022/11/16 08:22:05;;;;;;;88.03;46.67;;;;;;;7.72;100.00;94413.66;5093496;28;20905;-77
2022/11/16 08:24:31;;;;;;;79.57;44.37;;;;;;;7.81;100.00;94404.25;5091906;28;20434;-77
2022/11/16 08:26:58;;;;;;;66.87;37.97;;;;;;;7.88;100.00;94404.56;5055435;28;20505;-77
2022/11/16 08:29:25;;;;;;;70.40;36.23;;;;;;;7.84;100.00;94401.38;5093006;28;20578;-77
2022/11/16 08:31:54;;;;;;;74.60;39.37;;;;;;;7.91;100.00;94401.69;5088741;28;20537;-76
2022/11/16 08:34:21;;;;;;;83.53;43.55;;;;;;;8.02;100.00;94396.41;5092709;28;20444;-76
2022/11/16 08:36:48;;;;;;;70.90;41.47;;;;;;;8.11;100.00;94387.00;5093106;28;20274;-76
2022/11/16 08:39:14;;;;;;;69.80;38.27;;;;;;;8.12;100.00;94386.88;5057658;28;20440;-75
2022/11/16 08:41:43;;;;;;;60.83;35.60;;;;;;;8.14;100.00;94389.34;5056747;28;20436;-75
2022/11/16 08:44:10;;;;;;;76.47;39.00;;;;;;;8.14;100.00;94382.34;5092722;28;20440;-76
2022/11/16 08:46:38;;;;;;;73.37;39.00;;;;;;;8.22;100.00;94381.69;5087089;28;20452;-78
2022/11/16 08:49:07;;;;;;;93.83;44.10;;;;;;;8.04;100.00;94379.66;5088542;28;20479;-75
2022/11/16 08:51:34;;;;;;;80.37;42.30;;;;;;;7.96;100.00;94376.84;5086816;28;20527;-75
2022/11/16 08:54:02;;;;;;;88.10;42.40;;;;;;;8.12;100.00;94380.81;5093825;28;20455;-76
2022/11/16 08:56:29;;;;;;;79.73;37.10;;;;;;;8.18;100.00;94388.97;5093578;28;20448;-75
2022/11/16 08:58:56;;;;;;;77.03;39.30;;;;;;;8.16;100.00;94379.59;5093448;28;20456;-76
2022/11/16 09:01:25;;;;;;;80.85;42.60;;;;;;;8.05;100.00;94377.88;5092723;28;20854;-77
2022/11/16 09:03:52;;;;;;;71.77;38.70;;;;;;;8.29;100.00;94388.06;5094444;28;20197;-78
2022/11/16 09:06:21;;;;;;;77.27;38.33;;;;;;;8.43;100.00;94387.78;5094912;28;20442;-77
2022/11/16 09:08:48;;;;;;;75.70;40.50;;;;;;;8.53;100.00;94374.75;5094143;28;20440;-77
2022/11/16 09:11:17;;;;;;;79.07;41.43;;;;;;;8.60;100.00;94379.31;5094190;28;20866;-77
2022/11/16 09:13:44;;;;;;;73.10;36.70;;;;;;;8.62;100.00;94380.00;5094597;28;20447;-77
2022/11/16 09:16:14;;;;;;;89.33;39.37;;;;;;;8.71;100.00;94380.19;5094263;28;20505;-78
2022/11/16 09:18:41;;;;;;;67.40;35.00;;;;;;;8.81;100.00;94363.56;5093683;28;21012;-77
2022/11/16 09:21:08;;;;;;;73.50;35.20;;;;;;;8.88;100.00;94363.88;5093660;28;20501;-78
2022/11/16 09:23:36;;;;;;;66.70;38.70;;;;;;;8.91;100.00;94364.41;5093989;28;20927;-77
2022/11/16 09:26:04;;;;;;;86.23;42.97;;;;;;;8.99;100.00;94361.16;5093950;28;20483;-78
2022/11/16 09:28:31;;;;;;;72.30;40.73;;;;;;;9.00;100.00;94349.72;5093517;28;20451;-78
2022/11/16 09:31:01;;;;;;;67.80;38.50;;;;;;;9.00;100.00;94340.09;5092378;28;20498;-78
2022/11/16 09:33:29;;;;;;;64.10;39.20;;;;;;;9.04;100.00;94334.59;5092735;28;20490;-78
2022/11/16 09:36:00;;;;;;;64.13;36.33;;;;;;;9.08;100.00;94325.50;5056872;28;21004;-77
2022/11/16 09:38:26;;;;;;;68.63;38.07;;;;;;;9.18;100.00;94314.06;5058069;28;20451;-78
2022/11/16 09:40:56;;;;;;;74.37;36.57;;;;;;;9.17;100.00;94311.59;5072719;28;20435;-78
2022/11/16 09:43:37;;;;;;;66.43;35.77;;;;;;;9.30;100.00;94313.00;5091941;28;20440;-77
2022/11/16 09:46:17;;;;;;;52.60;29.80;;;;;;;9.24;100.00;94300.44;5091494;28;20876;-78
2022/11/16 09:48:44;;;;;;;65.37;34.10;;;;;;;9.46;100.00;94295.91;5091491;28;20541;-78
2022/11/16 09:51:15;;;;;;;55.23;30.50;;;;;;;9.45;100.00;94294.25;5091500;28;20539;-75
2022/11/16 09:53:46;;;;;;;53.03;27.10;;;;;;;9.45;100.00;94292.47;5056919;28;20936;-76
2022/11/16 09:56:20;;;;;;;54.83;30.33;;;;;;;9.44;100.00;94293.44;5091659;28;20522;-75
2022/11/16 09:58:52;;;;;;;50.40;28.47;;;;;;;9.50;100.00;94287.63;5092121;28;20834;-75
2022/11/16 10:01:26;;;;;;;46.43;28.50;;;;;;;9.57;100.00;94295.78;5055556;28;20531;-77
2022/11/16 10:04:01;;;;;;;56.60;31.33;;;;;;;9.52;100.00;94279.63;5091893;28;20452;-76
2022/11/16 10:06:40;;;;;;;59.07;32.10;;;;;;;9.59;100.00;94270.28;5091896;28;20531;-75
2022/11/16 10:09:11;;;;;;;51.00;28.37;;;;;;;9.67;100.00;94278.25;5091863;28;20452;-78
2022/11/16 10:11:58;;;;;;;53.73;28.20;;;;;;;9.63;100.00;94267.22;5091299;28;20495;-76
2022/11/16 10:15:06;;;;;;;41.43;24.47;;;;;;;9.70;100.00;94261.44;5072437;28;20880;-76
2022/11/16 10:17:56;;;;;;;36.20;22.93;;;;;;;9.72;100.00;94249.84;5011887;28;20456;-76
2022/11/16 10:20:46;;;;;;;41.13;22.90;;;;;;;9.69;100.00;94242.25;5028242;28;20983;-75
2022/11/16 10:23:21;;;;;;;40.60;22.90;;;;;;;9.85;100.00;94245.16;5028952;28;20439;-76
2022/11/16 10:25:53;;;;;;;34.53;22.30;;;;;;;10.05;100.00;94247.69;5021475;28;20456;-76
2022/11/16 10:28:55;;;;;;;38.30;22.27;;;;;;;10.22;99.40;94237.31;5018594;28;20455;-76
2022/11/16 10:31:33;;;;;;;36.87;21.97;;;;;;;10.29;99.41;94223.63;4965773;28;20505;-76
2022/11/16 10:34:03;;;;;;;33.77;21.30;;;;;;;10.24;98.15;94224.91;4922183;28;20520;-76
2022/11/16 10:36:34;;;;;;;48.80;26.00;;;;;;;10.36;99.11;94222.06;4965653;28;20457;-75
2022/11/16 10:39:01;;;;;;;55.33;27.40;;;;;;;10.37;98.19;94219.31;4970026;28;20441;-75
2022/11/16 10:41:35;;;;;;;44.63;26.70;;;;;;;10.46;98.21;94223.69;4965366;28;20585;-76
2022/11/16 10:44:13;;;;;;;41.20;25.57;;;;;;;10.40;98.75;94202.44;4969918;28;20458;-75
2022/11/16 10:46:46;;;;;;;48.30;26.70;;;;;;;10.35;98.83;94220.44;4969696;28;20519;-75
2022/11/16 10:49:21;;;;;;;39.33;23.70;;;;;;;10.39;98.43;94219.16;4969832;28;20453;-75
2022/11/16 10:51:48;;;;;;;41.07;26.00;;;;;;;10.21;99.21;94206.00;4969442;28;20572;-75
2022/11/16 10:54:15;;;;;;;43.80;25.63;;;;;;;10.35;99.94;94208.13;5024693;28;20446;-75
2022/11/16 10:56:45;;;;;;;43.17;26.27;;;;;;;10.40;99.84;94203.28;5053318;28;20819;-75
2022/11/16 10:59:15;;;;;;;46.23;25.83;;;;;;;10.46;99.61;94201.91;5050303;28;20811;-75
2022/11/16 11:01:43;;;;;;;58.63;30.33;;;;;;;10.65;99.25;94191.28;5007427;28;20583;-75
2022/11/16 11:04:15;;;;;;;44.10;26.03;;;;;;;10.73;97.82;94190.56;5039111;28;20510;-75
2022/11/16 11:06:43;;;;;;;40.90;24.50;;;;;;;10.60;96.89;94184.81;5041822;28;20491;-76
2022/11/16 11:09:26;;;;;;;51.57;27.50;;;;;;;10.61;97.61;94181.22;5084140;28;20453;-75
2022/11/16 11:15:01;;;;;;;46.93;25.23;;;;;;;10.44;98.68;94167.94;5031809;28;20564;-75
2022/11/16 11:17:28;;;;;;;35.83;22.80;;;;;;;10.57;98.69;94161.50;5032188;28;20468;-75
2022/11/16 11:20:00;;;;;;;39.87;24.43;;;;;;;10.71;98.06;94158.38;5031157;28;20444;-75
2022/11/16 11:22:28;;;;;;;38.33;24.00;;;;;;;10.81;97.83;94159.97;5032349;28;21017;-76
2022/11/16 11:24:54;;;;;;;43.97;27.07;;;;;;;10.82;97.06;94150.28;5015436;28;20520;-75
2022/11/16 11:27:23;;;;;;;41.97;25.07;;;;;;;10.93;96.64;94147.44;5032012;28;20640;-75
2022/11/16 11:29:57;;;;;;;35.87;21.97;;;;;;;10.95;96.90;94142.03;5031802;28;20536;-75
2022/11/16 11:32:30;;;;;;;47.40;26.30;;;;;;;10.96;96.44;94136.63;5031662;28;20446;-75
2022/11/16 11:34:59;;;;;;;47.00;29.53;;;;;;;10.89;96.54;94130.34;5031786;28;20456;-75
2022/11/16 11:37:30;;;;;;;56.17;29.93;;;;;;;10.98;96.19;94124.16;5031758;28;20442;-75
2022/11/16 11:40:18;;;;;;;38.70;23.43;;;;;;;10.75;96.64;94123.81;5030105;28;20892;-75
2022/11/16 11:42:53;;;;;;;36.77;21.80;;;;;;;10.92;97.22;94116.91;5032094;28;20457;-74
2022/11/16 11:45:21;;;;;;;44.40;24.70;;;;;;;10.94;97.32;94128.06;5031517;28;20441;-75
2022/11/16 11:47:53;;;;;;;41.40;24.53;;;;;;;10.89;96.28;94125.09;5031554;28;20535;-75
2022/11/16 11:50:25;;;;;;;39.07;22.07;;;;;;;10.88;96.63;94118.19;5093233;28;20840;-75
2022/11/16 11:53:16;;;;;;;34.87;21.67;;;;;;;10.96;96.00;94115.63;5094264;28;20532;-75
2022/11/16 11:55:43;;;;;;;40.90;24.93;;;;;;;11.13;96.34;94117.41;5073873;28;20460;-75
2022/11/16 11:58:15;;;;;;;42.83;24.87;;;;;;;11.26;96.28;94110.94;5073914;28;20475;-75
2022/11/16 12:00:52;;;;;;;35.23;23.40;;;;;;;11.26;95.29;94100.44;5073463;28;20526;-74
2022/11/16 12:03:45;;;;;;;40.60;26.33;;;;;;;11.22;94.97;94099.09;5074110;28;20475;-75
2022/11/16 12:06:19;;;;;;;45.10;25.87;;;;;;;11.40;95.13;94097.25;5094111;28;20591;-75